Capitol Logistics 7449

Operating for MZN



KMIA
Miami International Airport
Miami, Florida
KAFW
Fort Worth Alliance Airport
Fort Worth, Texas

Activity Log

Date Flight Route Aircraft Duration
04/27/2020 CPX336 WINCO2 WINCO SRQ Y280 REMIS Q100 REDFN Q105 HRV J58 AEX DODJE5 B763 3h 06m
06/17/2019 CPX336 KMIA WINCO2 WINCO J73 LBV SRQ Q100 REDFN Q105 HRV J58 AEX DODJE5 KAFW B763 2h 37m

Route Details

Aircraft Information
Group: North America Fleet
Types: B738,B752,B762,B763
Route Data
Distance: 989nm
Duration: 2h 35m
Recm'd Route: WINCO2 WINCO CHRRI SRQ Y280 ROZZI HRV J58 AEX PNUTS REEKO3
Origin Wx: KMIA 160853Z 30003KT 10SM FEW035 25/23 A2990 RMK AO2 SLP125 T02500228 56009 $
Dest. Wx: KAFW 160853Z 32004KT 10SM CLR 09/06 A3030 RMK AO2 SLP257 T00940056 50008
Notes:

Financial History
Total Freight: 164,973lbs
Average Load: 82,487lbs/flt
Fuel Used: 56,356lbs
Avg. Fuel Used: 28,178lbs/flt
Fuel Expense: $69,318
Avg. Fuel Expense: $34,659
Avg. Fuel Cost: $1.23/lbs
Total Gross Income: $223,794
Pilot Pay: $488
Total Expenses: $24,274
Total Revenue: $128,949
Average Revenue: $111,897.00